Time;durP1;ratioP1;P1;durP2;ratioP2;P2;SDS_P1;SDS_P2;PMS_P1;PMS_P2;Temp;Humidity;BMP_temperature;BMP_pressure;BME280_temperature;BME280_humidity;BME280_pressure;Samples;Min_cycle;Max_cycle;Signal;HPM_P1;HPM_P2
2024/04/10 00:00:21;;;;;;;1.27;1.02;;;;;;;;;;5457885;26;20006;-75
2024/04/10 00:02:48;;;;;;;2.42;0.93;;;;;;;;;;5457388;26;20012;-75
2024/04/10 00:05:15;;;;;;;2.70;1.05;;;;;;;;;;5427577;26;20017;-75
2024/04/10 00:07:42;;;;;;;1.13;0.75;;;;;;;;;;5457043;26;20010;-74
2024/04/10 00:10:09;;;;;;;3.08;0.77;;;;;;;;;;5456761;26;20006;-75
2024/04/10 00:12:36;;;;;;;5.78;1.35;;;;;;;;;;5456991;26;20008;-75
2024/04/10 00:15:03;;;;;;;2.92;0.80;;;;;;;;;;5456999;26;20034;-75
2024/04/10 00:17:30;;;;;;;1.40;0.73;;;;;;;;;;5457001;26;20455;-74
2024/04/10 00:19:57;;;;;;;4.63;1.33;;;;;;;;;;5457151;26;20006;-75
2024/04/10 00:22:25;;;;;;;2.42;0.70;;;;;;;;;;5457043;26;20009;-74
2024/04/10 00:24:52;;;;;;;1.38;0.80;;;;;;;;;;5427072;26;20017;-74
2024/04/10 00:27:21;;;;;;;1.90;0.98;;;;;;;;;;5456626;26;20117;-75
2024/04/10 00:29:49;;;;;;;3.15;0.60;;;;;;;;;;5456631;26;20084;-75
2024/04/10 00:32:16;;;;;;;3.17;0.82;;;;;;;;;;5442389;26;20444;-75
2024/04/10 00:34:43;;;;;;;4.10;1.25;;;;;;;;;;5427284;26;20010;-75
2024/04/10 00:37:10;;;;;;;1.15;0.60;;;;;;;;;;5456592;26;20452;-75
2024/04/10 00:39:37;;;;;;;5.35;0.93;;;;;;;;;;5456615;26;20552;-74
2024/04/10 00:42:03;;;;;;;2.60;0.70;;;;;;;;;;5456757;26;20002;-75
2024/04/10 00:44:30;;;;;;;2.45;1.02;;;;;;;;;;5456687;26;20380;-75
2024/04/10 00:46:57;;;;;;;1.13;0.80;;;;;;;;;;5456111;26;20009;-75
2024/04/10 00:49:25;;;;;;;5.07;0.95;;;;;;;;;;5456577;26;20026;-77
2024/04/10 00:51:52;;;;;;;2.47;0.70;;;;;;;;;;5456719;26;20032;-75
2024/04/10 00:54:18;;;;;;;1.65;0.82;;;;;;;;;;5456578;26;20002;-74
2024/04/10 00:56:45;;;;;;;3.50;0.80;;;;;;;;;;5426427;26;20464;-75
2024/04/10 00:59:12;;;;;;;3.38;0.75;;;;;;;;;;5456216;26;20002;-75
2024/04/10 01:01:39;;;;;;;4.35;0.75;;;;;;;;;;5456428;26;19997;-75
2024/04/10 01:04:05;;;;;;;2.88;0.90;;;;;;;;;;5488355;26;20021;-75
2024/04/10 01:06:33;;;;;;;3.08;1.27;;;;;;;;;;5456167;26;20005;-75
2024/04/10 01:08:59;;;;;;;1.70;0.80;;;;;;;;;;5455869;26;20079;-75
2024/04/10 01:11:26;;;;;;;2.17;0.80;;;;;;;;;;5456168;26;20074;-75
2024/04/10 01:13:53;;;;;;;3.10;0.93;;;;;;;;;;5456070;26;20344;-75
2024/04/10 01:16:20;;;;;;;1.48;0.70;;;;;;;;;;5455787;26;20006;-75
2024/04/10 01:18:47;;;;;;;1.73;0.93;;;;;;;;;;5456256;26;20490;-74
2024/04/10 01:21:14;;;;;;;2.88;1.02;;;;;;;;;;5455931;26;20326;-75
2024/04/10 01:23:41;;;;;;;1.38;0.63;;;;;;;;;;5456266;26;20078;-75
2024/04/10 01:26:07;;;;;;;3.17;0.88;;;;;;;;;;5455628;26;20448;-75
2024/04/10 01:28:34;;;;;;;1.58;0.90;;;;;;;;;;5456268;26;20017;-75
2024/04/10 01:31:01;;;;;;;2.75;0.73;;;;;;;;;;5455599;26;19999;-74
2024/04/10 01:33:28;;;;;;;4.38;0.88;;;;;;;;;;5455848;26;20002;-75
2024/04/10 01:35:55;;;;;;;2.92;0.88;;;;;;;;;;5456061;26;20009;-75
2024/04/10 01:38:25;;;;;;;2.08;0.90;;;;;;;;;;5455507;26;20075;-74
2024/04/10 01:40:52;;;;;;;1.30;0.88;;;;;;;;;;5455766;26;20041;-75
2024/04/10 01:43:18;;;;;;;1.90;1.00;;;;;;;;;;5456116;26;20014;-75
2024/04/10 01:45:45;;;;;;;2.40;1.00;;;;;;;;;;5455681;26;19998;-75
2024/04/10 01:48:12;;;;;;;2.00;1.00;;;;;;;;;;5455260;26;20026;-75
2024/04/10 01:50:39;;;;;;;3.50;1.60;;;;;;;;;;5455461;26;20006;-74
2024/04/10 01:53:06;;;;;;;2.05;0.98;;;;;;;;;;5455636;26;20006;-75
2024/04/10 01:55:33;;;;;;;4.25;1.05;;;;;;;;;;5455654;26;20487;-75
2024/04/10 01:58:04;;;;;;;1.58;0.90;;;;;;;;;;5455428;26;20036;-74
2024/04/10 02:00:34;;;;;;;3.08;1.08;;;;;;;;;;5448871;26;20003;-76
2024/04/10 02:03:01;;;;;;;2.90;1.00;;;;;;;;;;5484293;26;20082;-75
2024/04/10 02:05:28;;;;;;;1.60;0.95;;;;;;;;;;5449757;26;19995;-74
2024/04/10 02:07:55;;;;;;;4.97;1.35;;;;;;;;;;5449671;26;19998;-75
2024/04/10 02:10:22;;;;;;;2.42;1.13;;;;;;;;;;5455218;26;19994;-74
2024/04/10 02:12:48;;;;;;;2.85;1.40;;;;;;;;;;5425683;26;20010;-75
2024/04/10 02:15:15;;;;;;;3.33;1.13;;;;;;;;;;5449234;26;20453;-76
2024/04/10 02:17:42;;;;;;;2.38;0.95;;;;;;;;;;5440770;26;20006;-75
2024/04/10 02:20:09;;;;;;;2.10;0.90;;;;;;;;;;5453421;26;20025;-75
2024/04/10 02:22:36;;;;;;;2.03;0.80;;;;;;;;;;5449092;26;20077;-75
2024/04/10 02:25:04;;;;;;;2.45;0.73;;;;;;;;;;5484294;26;20009;-76
2024/04/10 02:27:31;;;;;;;2.83;1.10;;;;;;;;;;5419206;26;20082;-76
2024/04/10 02:29:57;;;;;;;2.63;1.08;;;;;;;;;;5420681;26;20010;-76
2024/04/10 02:32:24;;;;;;;1.55;0.95;;;;;;;;;;5455054;26;20479;-75
2024/04/10 02:34:51;;;;;;;4.72;1.40;;;;;;;;;;5454822;26;20344;-76
2024/04/10 02:37:18;;;;;;;2.72;1.30;;;;;;;;;;5486514;26;20369;-76
2024/04/10 02:39:45;;;;;;;3.03;1.00;;;;;;;;;;5455028;26;19994;-75
2024/04/10 02:42:15;;;;;;;2.85;1.40;;;;;;;;;;5454478;26;20016;-76
2024/04/10 02:44:43;;;;;;;4.38;0.88;;;;;;;;;;5418732;26;20011;-76
2024/04/10 02:47:10;;;;;;;3.15;1.80;;;;;;;;;;5484772;26;21530;-75
2024/04/10 02:49:37;;;;;;;2.20;0.80;;;;;;;;;;5448375;26;20054;-75
2024/04/10 02:52:04;;;;;;;5.95;1.33;;;;;;;;;;5483343;26;20379;-76
2024/04/10 02:54:30;;;;;;;2.97;0.95;;;;;;;;;;5454612;26;19998;-75
2024/04/10 02:56:57;;;;;;;2.22;1.00;;;;;;;;;;5454122;26;20006;-75
2024/04/10 02:59:24;;;;;;;6.20;1.00;;;;;;;;;;5448306;26;20003;-75
2024/04/10 03:01:51;;;;;;;3.05;0.80;;;;;;;;;;5448282;26;20086;-75
2024/04/10 03:04:18;;;;;;;2.45;0.88;;;;;;;;;;5454770;26;20002;-75
2024/04/10 03:06:44;;;;;;;2.13;0.77;;;;;;;;;;5454419;26;20017;-75
2024/04/10 03:09:14;;;;;;;5.07;0.70;;;;;;;;;;5454105;26;19998;-75
2024/04/10 03:11:41;;;;;;;3.47;1.08;;;;;;;;;;5454579;26;20006;-75
2024/04/10 03:14:08;;;;;;;3.00;0.77;;;;;;;;;;5454047;26;20002;-75
2024/04/10 03:16:35;;;;;;;5.20;0.80;;;;;;;;;;5453904;26;20468;-75
2024/04/10 03:19:01;;;;;;;7.18;0.98;;;;;;;;;;5456132;26;20500;-75
2024/04/10 03:21:28;;;;;;;4.20;0.85;;;;;;;;;;5472498;26;20006;-75
2024/04/10 03:23:55;;;;;;;4.35;1.33;;;;;;;;;;5461372;26;20002;-75
2024/04/10 03:26:21;;;;;;;4.35;1.63;;;;;;;;;;5457670;26;20006;-75
2024/04/10 03:28:48;;;;;;;2.90;1.70;;;;;;;;;;5457556;26;20002;-76
2024/04/10 03:31:15;;;;;;;7.70;1.30;;;;;;;;;;5457916;26;20010;-75
2024/04/10 03:33:42;;;;;;;5.18;0.90;;;;;;;;;;5457833;26;20456;-75
2024/04/10 03:36:09;;;;;;;7.03;1.70;;;;;;;;;;5457066;26;20010;-75
2024/04/10 03:38:36;;;;;;;2.00;0.73;;;;;;;;;;5457523;26;20078;-75
2024/04/10 03:41:02;;;;;;;3.00;0.88;;;;;;;;;;5457423;26;20017;-76
2024/04/10 03:43:29;;;;;;;5.75;1.20;;;;;;;;;;5489416;26;20412;-75
2024/04/10 03:45:56;;;;;;;6.47;1.48;;;;;;;;;;5423581;26;20010;-75
2024/04/10 03:48:23;;;;;;;4.25;0.80;;;;;;;;;;5457569;26;20640;-75
2024/04/10 03:50:57;;;;;;;10.18;1.73;;;;;;;;;;5457196;26;20042;-75
2024/04/10 03:53:23;;;;;;;3.97;0.73;;;;;;;;;;5444828;26;19998;-76
2024/04/10 03:55:50;;;;;;;3.72;1.10;;;;;;;;;;5457655;26;20395;-75
2024/04/10 03:58:17;;;;;;;3.30;0.77;;;;;;;;;;5435900;26;20030;-76
2024/04/10 04:00:45;;;;;;;2.70;0.80;;;;;;;;;;5449291;26;20006;-75
2024/04/10 04:03:13;;;;;;;2.72;1.20;;;;;;;;;;5457352;26;20013;-75
2024/04/10 04:05:40;;;;;;;5.55;1.73;;;;;;;;;;5457206;26;20078;-75
2024/04/10 04:08:09;;;;;;;3.90;1.10;;;;;;;;;;5457302;26;19998;-76
2024/04/10 04:10:35;;;;;;;7.25;1.63;;;;;;;;;;5457077;26;20050;-76
2024/04/10 04:13:02;;;;;;;2.40;0.90;;;;;;;;;;5456881;26;20001;-75
2024/04/10 04:15:29;;;;;;;2.42;0.70;;;;;;;;;;5457208;26;20474;-75
2024/04/10 04:17:55;;;;;;;4.97;1.55;;;;;;;;;;5456969;26;20415;-75
2024/04/10 04:20:22;;;;;;;6.00;1.15;;;;;;;;;;5456891;26;20488;-75
2024/04/10 04:22:49;;;;;;;3.45;0.75;;;;;;;;;;5456990;26;20078;-75
2024/04/10 04:25:16;;;;;;;3.78;0.85;;;;;;;;;;5442259;26;20010;-74
2024/04/10 04:27:42;;;;;;;7.43;1.05;;;;;;;;;;5456631;26;20002;-75
2024/04/10 04:30:12;;;;;;;3.92;1.63;;;;;;;;;;5455856;26;20006;-75
2024/04/10 04:32:39;;;;;;;4.03;0.70;;;;;;;;;;5456922;26;20483;-75
2024/04/10 04:35:07;;;;;;;3.10;1.00;;;;;;;;;;5456726;26;20456;-75
2024/04/10 04:37:34;;;;;;;3.88;1.38;;;;;;;;;;5456883;26;20373;-76
2024/04/10 04:40:00;;;;;;;10.68;1.30;;;;;;;;;;5456400;26;20006;-75
2024/04/10 04:42:27;;;;;;;3.03;0.80;;;;;;;;;;5456890;26;20013;-75
2024/04/10 04:44:54;;;;;;;2.30;0.88;;;;;;;;;;5426761;26;20006;-75
2024/04/10 04:47:20;;;;;;;3.28;0.88;;;;;;;;;;5456436;26;20034;-75
2024/04/10 04:49:47;;;;;;;3.45;0.95;;;;;;;;;;5426685;26;20017;-75
2024/04/10 04:52:14;;;;;;;3.85;0.63;;;;;;;;;;5456660;26;19998;-75
2024/04/10 04:54:41;;;;;;;4.15;0.90;;;;;;;;;;5456574;26;20070;-75
2024/04/10 04:57:12;;;;;;;5.47;1.15;;;;;;;;;;5456071;26;20017;-76
2024/04/10 04:59:39;;;;;;;3.97;0.82;;;;;;;;;;5456358;26;20371;-74
2024/04/10 05:02:06;;;;;;;7.82;0.85;;;;;;;;;;5488188;26;20013;-75
2024/04/10 05:07:18;;;;;;;6.53;1.00;;;;;;;;;;5488240;26;20030;-75
2024/04/10 05:09:50;;;;;;;3.47;0.75;;;;;;;;;;5456670;26;20009;-76
2024/04/10 05:12:16;;;;;;;3.17;0.90;;;;;;;;;;5456863;26;20012;-76
2024/04/10 05:14:50;;;;;;;2.78;1.05;;;;;;;;;;5427671;26;20344;-76
2024/04/10 05:17:17;;;;;;;2.58;0.98;;;;;;;;;;5475192;26;19991;-74
2024/04/10 05:19:44;;;;;;;3.33;1.00;;;;;;;;;;5480895;26;20009;-76
2024/04/10 05:22:11;;;;;;;7.95;1.30;;;;;;;;;;5439845;26;20540;-77
2024/04/10 05:24:38;;;;;;;3.10;0.80;;;;;;;;;;5427356;26;20006;-77
2024/04/10 05:27:05;;;;;;;2.85;0.90;;;;;;;;;;5456770;26;20017;-77
2024/04/10 05:29:32;;;;;;;4.97;1.00;;;;;;;;;;5427262;26;20002;-77
2024/04/10 05:31:59;;;;;;;1.98;1.05;;;;;;;;;;5463628;26;20078;-77
2024/04/10 05:34:26;;;;;;;4.50;0.98;;;;;;;;;;5433665;26;20010;-77
2024/04/10 05:36:53;;;;;;;3.03;0.80;;;;;;;;;;5455787;26;20002;-77
2024/04/10 05:39:21;;;;;;;3.85;0.90;;;;;;;;;;5455952;26;20013;-77
2024/04/10 05:41:48;;;;;;;6.68;1.08;;;;;;;;;;5454794;26;20001;-77
2024/04/10 05:44:15;;;;;;;3.92;0.90;;;;;;;;;;5456167;26;20013;-76
2024/04/10 05:46:42;;;;;;;8.25;1.45;;;;;;;;;;5455790;26;20017;-77
2024/04/10 05:49:10;;;;;;;6.80;0.90;;;;;;;;;;5485958;26;20017;-77
2024/04/10 05:51:37;;;;;;;9.80;1.20;;;;;;;;;;5455838;26;20368;-77
2024/04/10 05:54:03;;;;;;;2.95;1.05;;;;;;;;;;5455747;26;20006;-77
2024/04/10 05:56:30;;;;;;;4.15;1.52;;;;;;;;;;5455522;26;20459;-77
2024/04/10 05:58:57;;;;;;;7.38;1.13;;;;;;;;;;5426246;26;20253;-77
2024/04/10 06:01:24;;;;;;;2.63;0.70;;;;;;;;;;5488387;26;19998;-77
2024/04/10 06:05:11;;;;;;;6.35;1.10;;;;;;;;;;5488966;25;1927245;-76
2024/04/10 06:07:42;;;;;;;7.65;1.20;;;;;;;;;;5510034;25;20180;-76
2024/04/10 06:10:09;;;;;;;3.80;1.40;;;;;;;;;;5510753;25;20006;-77
2024/04/10 06:12:35;;;;;;;7.07;1.20;;;;;;;;;;5510912;25;20093;-76
2024/04/10 06:15:02;;;;;;;3.22;0.90;;;;;;;;;;5510889;25;20013;-76
2024/04/10 06:17:29;;;;;;;3.17;0.90;;;;;;;;;;5510766;25;20005;-77
2024/04/10 06:19:56;;;;;;;4.03;1.25;;;;;;;;;;5510556;25;20005;-76
2024/04/10 06:22:23;;;;;;;10.20;1.38;;;;;;;;;;5451203;26;20456;-77
2024/04/10 06:24:51;;;;;;;4.45;0.98;;;;;;;;;;5467441;25;20005;-76
2024/04/10 06:27:18;;;;;;;3.97;1.27;;;;;;;;;;5480946;25;20001;-76
2024/04/10 06:29:45;;;;;;;3.13;1.13;;;;;;;;;;5510939;25;20005;-77
2024/04/10 06:32:13;;;;;;;4.30;1.35;;;;;;;;;;5510801;25;20339;-77
2024/04/10 06:34:41;;;;;;;5.82;1.42;;;;;;;;;;5480738;25;20019;-77
2024/04/10 06:37:08;;;;;;;3.22;1.10;;;;;;;;;;5480480;25;20667;-77
2024/04/10 06:39:34;;;;;;;7.55;1.60;;;;;;;;;;5479913;25;20019;-76
2024/04/10 06:42:01;;;;;;;11.98;1.33;;;;;;;;;;5477688;25;20460;-77
2024/04/10 06:44:28;;;;;;;5.22;1.88;;;;;;;;;;5483211;25;20546;-75
2024/04/10 06:46:55;;;;;;;4.10;1.50;;;;;;;;;;5508881;25;20001;-77
2024/04/10 06:49:22;;;;;;;4.65;1.30;;;;;;;;;;5482060;25;20013;-77
2024/04/10 06:51:49;;;;;;;5.60;1.30;;;;;;;;;;5543223;25;19997;-77
2024/04/10 06:54:20;;;;;;;7.20;1.10;;;;;;;;;;5488652;26;20002;-76
2024/04/10 06:56:47;;;;;;;6.65;1.38;;;;;;;;;;5503145;25;20015;-76
2024/04/10 06:59:15;;;;;;;6.28;2.15;;;;;;;;;;5504223;25;19998;-76
2024/04/10 07:01:42;;;;;;;4.43;0.90;;;;;;;;;;5471851;25;19997;-76
2024/04/10 07:04:08;;;;;;;6.65;1.42;;;;;;;;;;5510148;25;20054;-77
2024/04/10 07:06:35;;;;;;;4.88;1.58;;;;;;;;;;5509645;25;19997;-76
2024/04/10 07:09:02;;;;;;;9.48;2.00;;;;;;;;;;5510261;25;20013;-76
2024/04/10 07:11:31;;;;;;;6.53;1.00;;;;;;;;;;5510301;25;19997;-76
2024/04/10 07:14:01;;;;;;;8.55;2.05;;;;;;;;;;5510182;25;20005;-77
2024/04/10 07:16:30;;;;;;;7.53;1.77;;;;;;;;;;5464783;26;20012;-76
2024/04/10 07:18:58;;;;;;;7.20;1.10;;;;;;;;;;5494393;26;20074;-76
2024/04/10 07:21:25;;;;;;;7.15;1.25;;;;;;;;;;5494309;26;20014;-76
2024/04/10 07:23:52;;;;;;;4.15;1.00;;;;;;;;;;5494047;26;20012;-76
2024/04/10 07:26:25;;;;;;;6.47;1.55;;;;;;;;;;5423412;26;19998;-76
2024/04/10 07:28:53;;;;;;;8.27;1.00;;;;;;;;;;5437551;26;20013;-76
2024/04/10 07:31:20;;;;;;;8.05;1.50;;;;;;;;;;5457740;26;20013;-76
2024/04/10 07:33:51;;;;;;;8.18;2.08;;;;;;;;;;5480588;26;20056;-75
2024/04/10 07:36:18;;;;;;;8.85;1.85;;;;;;;;;;5475092;26;19999;-77
2024/04/10 07:38:45;;;;;;;13.50;2.20;;;;;;;;;;5441325;26;20013;-76
2024/04/10 07:41:13;;;;;;;10.82;2.65;;;;;;;;;;5433768;26;20330;-77
2024/04/10 07:43:40;;;;;;;5.85;1.50;;;;;;;;;;5494328;26;20054;-77
2024/04/10 07:46:10;;;;;;;4.80;1.40;;;;;;;;;;5493673;26;20009;-77
2024/04/10 07:48:38;;;;;;;7.60;1.30;;;;;;;;;;5466977;26;20360;-77
2024/04/10 07:51:11;;;;;;;9.50;2.53;;;;;;;;;;5493834;26;20046;-76
2024/04/10 07:53:38;;;;;;;7.20;2.03;;;;;;;;;;5431057;26;20069;-76
2024/04/10 07:56:09;;;;;;;3.92;1.20;;;;;;;;;;5454524;26;20532;-76
2024/04/10 07:58:36;;;;;;;7.60;1.20;;;;;;;;;;5468468;26;20005;-77
2024/04/10 08:01:03;;;;;;;4.32;1.52;;;;;;;;;;5463228;26;20380;-77
2024/04/10 08:03:30;;;;;;;9.00;1.17;;;;;;;;;;5463463;26;20482;-76
2024/04/10 08:05:57;;;;;;;8.68;1.70;;;;;;;;;;5493581;26;20062;-76
2024/04/10 08:08:25;;;;;;;7.45;1.33;;;;;;;;;;5433484;26;19999;-76
2024/04/10 08:11:05;;;;;;;8.90;1.33;;;;;;;;;;5451266;26;20020;-77
2024/04/10 08:13:32;;;;;;;8.77;1.30;;;;;;;;;;5463380;26;20487;-76
2024/04/10 08:15:59;;;;;;;7.40;1.33;;;;;;;;;;5493294;26;20077;-76
2024/04/10 08:18:29;;;;;;;6.30;1.55;;;;;;;;;;5525228;26;20009;-76
2024/04/10 08:21:02;;;;;;;5.45;1.88;;;;;;;;;;5463089;26;20377;-75
2024/04/10 08:23:30;;;;;;;6.63;1.90;;;;;;;;;;5493323;26;19998;-76
2024/04/10 08:25:57;;;;;;;7.35;1.58;;;;;;;;;;5462698;26;20017;-76
2024/04/10 08:28:27;;;;;;;7.75;2.65;;;;;;;;;;5491814;26;20009;-76
2024/04/10 08:30:54;;;;;;;7.63;2.15;;;;;;;;;;5479363;26;20005;-75
2024/04/10 08:33:21;;;;;;;7.15;1.77;;;;;;;;;;5516232;26;20046;-75
2024/04/10 08:35:52;;;;;;;9.73;2.00;;;;;;;;;;5481209;26;19998;-76
2024/04/10 08:38:19;;;;;;;5.32;1.85;;;;;;;;;;5464064;26;19997;-77
2024/04/10 08:40:46;;;;;;;9.85;2.15;;;;;;;;;;5493531;26;20006;-77
2024/04/10 08:43:12;;;;;;;9.35;2.72;;;;;;;;;;5493332;26;19997;-76
2024/04/10 08:45:39;;;;;;;6.70;1.88;;;;;;;;;;5463019;26;20016;-77
2024/04/10 08:48:06;;;;;;;8.40;2.35;;;;;;;;;;5492297;26;20339;-76
2024/04/10 08:50:33;;;;;;;8.25;1.77;;;;;;;;;;5492661;26;20016;-77
2024/04/10 08:53:00;;;;;;;13.73;2.05;;;;;;;;;;5462313;26;20012;-76
2024/04/10 08:55:27;;;;;;;7.55;1.90;;;;;;;;;;5492867;26;20081;-76
2024/04/10 08:57:53;;;;;;;3.72;1.80;;;;;;;;;;5492873;26;19997;-76
2024/04/10 09:00:20;;;;;;;9.55;2.45;;;;;;;;;;5492821;26;20474;-76
2024/04/10 09:02:47;;;;;;;9.93;1.70;;;;;;;;;;5462854;26;19998;-77
2024/04/10 09:05:24;;;;;;;5.97;1.63;;;;;;;;;;5462028;26;20009;-76
2024/04/10 09:07:58;;;;;;;6.60;1.50;;;;;;;;;;5492295;26;20025;-76
2024/04/10 09:10:25;;;;;;;12.63;2.75;;;;;;;;;;5466637;26;20012;-76
2024/04/10 09:13:01;;;;;;;6.80;1.48;;;;;;;;;;5492553;26;20332;-76
2024/04/10 09:15:28;;;;;;;11.88;1.80;;;;;;;;;;5462348;26;20005;-76
2024/04/10 09:17:55;;;;;;;11.38;1.85;;;;;;;;;;5523882;26;20005;-77
2024/04/10 09:20:22;;;;;;;4.63;1.30;;;;;;;;;;5492400;26;19997;-76
2024/04/10 09:22:58;;;;;;;9.15;1.50;;;;;;;;;;5461887;26;20131;-76
2024/04/10 09:25:25;;;;;;;8.57;1.90;;;;;;;;;;5462002;26;20008;-76
2024/04/10 09:27:59;;;;;;;9.13;2.15;;;;;;;;;;5461748;26;20013;-76
2024/04/10 09:30:26;;;;;;;13.90;1.77;;;;;;;;;;5492067;26;20005;-76
2024/04/10 09:32:53;;;;;;;5.68;1.60;;;;;;;;;;5491867;26;20005;-76
2024/04/10 09:35:20;;;;;;;9.45;1.70;;;;;;;;;;5491983;26;20043;-77
2024/04/10 09:37:48;;;;;;;6.38;1.90;;;;;;;;;;5460827;26;20334;-76
2024/04/10 09:40:20;;;;;;;8.73;1.83;;;;;;;;;;5461996;26;19997;-76
2024/04/10 09:42:47;;;;;;;2.88;1.33;;;;;;;;;;5461834;26;19993;-76
2024/04/10 09:45:17;;;;;;;7.20;1.80;;;;;;;;;;5431594;26;20001;-76
2024/04/10 09:47:44;;;;;;;6.57;2.05;;;;;;;;;;5462641;26;20476;-77
2024/04/10 09:50:14;;;;;;;7.47;1.50;;;;;;;;;;5492148;26;20024;-76
2024/04/10 09:52:41;;;;;;;9.90;2.08;;;;;;;;;;5491864;26;20355;-77
2024/04/10 09:55:07;;;;;;;3.30;1.50;;;;;;;;;;5491964;26;20050;-76
2024/04/10 09:57:34;;;;;;;5.90;1.20;;;;;;;;;;5491558;26;19993;-76
2024/04/10 10:00:01;;;;;;;4.63;1.38;;;;;;;;;;5491648;26;20006;-76
2024/04/10 10:02:28;;;;;;;4.43;1.15;;;;;;;;;;5514697;26;20479;-77
2024/04/10 10:04:55;;;;;;;5.57;1.20;;;;;;;;;;5471068;26;20350;-76
2024/04/10 10:07:22;;;;;;;4.55;0.90;;;;;;;;;;5492348;26;19997;-77
2024/04/10 10:09:50;;;;;;;6.68;1.20;;;;;;;;;;5491484;26;19997;-76
2024/04/10 10:12:26;;;;;;;4.05;1.10;;;;;;;;;;5461740;26;20013;-77
2024/04/10 10:14:53;;;;;;;6.18;1.88;;;;;;;;;;5461037;26;20069;-76
2024/04/10 10:17:27;;;;;;;6.50;1.58;;;;;;;;;;5447403;26;20534;-77
2024/04/10 10:19:53;;;;;;;7.00;1.48;;;;;;;;;;5491394;26;19993;-76
2024/04/10 10:22:20;;;;;;;6.93;1.25;;;;;;;;;;5491406;26;20506;-77
2024/04/10 10:24:57;;;;;;;6.82;1.25;;;;;;;;;;5491661;26;20012;-77
2024/04/10 10:27:25;;;;;;;4.53;1.00;;;;;;;;;;5491147;26;20335;-77
2024/04/10 10:30:02;;;;;;;3.38;1.30;;;;;;;;;;5491067;26;20009;-76
2024/04/10 10:32:30;;;;;;;7.07;1.27;;;;;;;;;;5491663;26;20491;-76
2024/04/10 10:35:10;;;;;;;5.80;1.00;;;;;;;;;;5491463;26;20017;-76
2024/04/10 10:37:38;;;;;;;2.97;0.80;;;;;;;;;;5463379;26;20009;-76
2024/04/10 10:40:06;;;;;;;6.20;1.00;;;;;;;;;;5491865;26;20016;-77
2024/04/10 10:42:33;;;;;;;8.85;1.63;;;;;;;;;;5461799;26;19994;-76
2024/04/10 10:45:06;;;;;;;3.83;1.20;;;;;;;;;;5490879;26;20002;-76
2024/04/10 10:47:39;;;;;;;7.10;1.23;;;;;;;;;;5522738;26;20408;-77
2024/04/10 10:50:06;;;;;;;6.18;1.10;;;;;;;;;;5491484;26;20009;-77
2024/04/10 10:52:33;;;;;;;6.40;1.35;;;;;;;;;;5484164;26;20337;-76
2024/04/10 10:55:07;;;;;;;3.63;1.20;;;;;;;;;;5472982;26;20013;-75
2024/04/10 10:57:34;;;;;;;6.03;1.83;;;;;;;;;;5468659;26;20370;-75
2024/04/10 11:00:13;;;;;;;5.85;1.60;;;;;;;;;;5494316;26;20006;-76
2024/04/10 11:02:43;;;;;;;4.05;1.50;;;;;;;;;;5464623;26;20002;-76
2024/04/10 11:05:11;;;;;;;3.75;1.50;;;;;;;;;;5494169;26;20202;-75
2024/04/10 11:07:38;;;;;;;3.30;1.00;;;;;;;;;;5495028;26;20046;-75
2024/04/10 11:10:14;;;;;;;10.57;1.23;;;;;;;;;;5431936;26;19998;-76
2024/04/10 11:12:42;;;;;;;5.38;1.20;;;;;;;;;;5494329;26;20016;-75
2024/04/10 11:15:09;;;;;;;4.60;1.17;;;;;;;;;;5494235;26;20021;-75
2024/04/10 11:17:36;;;;;;;8.05;1.30;;;;;;;;;;5482571;26;20075;-76
2024/04/10 11:20:10;;;;;;;8.18;1.30;;;;;;;;;;5475986;26;20012;-76
2024/04/10 11:22:37;;;;;;;2.97;0.95;;;;;;;;;;5494806;26;19998;-76
2024/04/10 11:25:05;;;;;;;4.35;1.70;;;;;;;;;;5493930;26;20464;-75
2024/04/10 11:27:32;;;;;;;7.10;0.90;;;;;;;;;;5493898;26;19997;-76
2024/04/10 11:29:58;;;;;;;3.88;0.88;;;;;;;;;;5477572;26;20005;-75
2024/04/10 11:32:25;;;;;;;5.28;0.85;;;;;;;;;;5466799;26;20010;-75
2024/04/10 11:34:53;;;;;;;6.38;1.90;;;;;;;;;;5494637;26;20002;-76
2024/04/10 11:37:20;;;;;;;4.90;1.60;;;;;;;;;;5464112;26;20012;-76
2024/04/10 11:39:46;;;;;;;2.72;1.00;;;;;;;;;;5493849;26;20005;-76
2024/04/10 11:42:13;;;;;;;3.47;1.48;;;;;;;;;;5463873;26;20005;-76
2024/04/10 11:44:40;;;;;;;5.60;1.58;;;;;;;;;;5464114;26;20339;-76
2024/04/10 11:47:07;;;;;;;5.45;1.15;;;;;;;;;;5493580;26;20016;-76
2024/04/10 11:49:34;;;;;;;6.07;1.70;;;;;;;;;;5493952;26;20013;-75
2024/04/10 11:52:00;;;;;;;4.32;1.27;;;;;;;;;;5493947;26;20109;-76
2024/04/10 11:54:27;;;;;;;3.55;1.38;;;;;;;;;;5463704;26;20005;-75
2024/04/10 11:56:54;;;;;;;6.03;1.33;;;;;;;;;;5493555;26;20012;-75
2024/04/10 11:59:21;;;;;;;11.73;1.30;;;;;;;;;;5493745;26;20041;-75
2024/04/10 12:01:48;;;;;;;3.75;1.15;;;;;;;;;;5493458;26;20005;-76
2024/04/10 12:04:15;;;;;;;6.18;1.35;;;;;;;;;;5526068;25;20001;-75
2024/04/10 12:06:44;;;;;;;5.68;1.70;;;;;;;;;;5493494;26;20065;-76
2024/04/10 12:09:10;;;;;;;3.60;1.30;;;;;;;;;;5474575;26;19998;-78
2024/04/10 12:11:37;;;;;;;5.30;1.38;;;;;;;;;;5442628;26;20002;-75
2024/04/10 12:14:04;;;;;;;6.63;1.48;;;;;;;;;;5454490;26;20030;-72
2024/04/10 12:16:34;;;;;;;4.70;1.10;;;;;;;;;;5462228;26;20020;-72
2024/04/10 12:19:01;;;;;;;4.20;1.40;;;;;;;;;;5492129;26;19998;-72
2024/04/10 12:21:27;;;;;;;5.63;1.67;;;;;;;;;;5464473;26;20058;-76
2024/04/10 12:23:54;;;;;;;5.38;1.23;;;;;;;;;;5460493;26;20082;-74
2024/04/10 12:26:21;;;;;;;2.90;0.85;;;;;;;;;;5494154;26;20017;-74
2024/04/10 12:28:48;;;;;;;5.68;1.20;;;;;;;;;;5445309;26;20035;-73
2024/04/10 12:31:15;;;;;;;4.55;1.20;;;;;;;;;;5433116;26;20017;-73
2024/04/10 12:33:42;;;;;;;7.03;1.52;;;;;;;;;;5480815;26;20810;-73
2024/04/10 12:38:55;;;;;;;5.97;1.23;;;;;;;;;;5493676;26;19997;-73
2024/04/10 12:41:21;;;;;;;5.95;1.55;;;;;;;;;;5468638;26;19997;-72
2024/04/10 12:43:50;;;;;;;3.60;1.20;;;;;;;;;;5455149;26;20006;-72
2024/04/10 12:46:21;;;;;;;5.80;1.63;;;;;;;;;;5459070;26;20459;-72
2024/04/10 12:48:48;;;;;;;3.05;0.90;;;;;;;;;;5489230;26;20024;-72
2024/04/10 12:51:15;;;;;;;4.50;1.00;;;;;;;;;;5475653;26;19998;-73
2024/04/10 12:53:43;;;;;;;5.60;1.30;;;;;;;;;;5462457;26;20013;-72
2024/04/10 12:56:10;;;;;;;5.38;1.67;;;;;;;;;;5457120;26;20522;-73
2024/04/10 12:58:37;;;;;;;2.67;0.90;;;;;;;;;;5489254;26;20005;-72
2024/04/10 13:01:05;;;;;;;4.03;1.00;;;;;;;;;;5478388;26;20005;-73
2024/04/10 13:03:34;;;;;;;2.80;0.90;;;;;;;;;;5439601;26;20001;-74
2024/04/10 13:06:01;;;;;;;4.57;1.00;;;;;;;;;;5487028;26;19998;-75
2024/04/10 13:08:28;;;;;;;3.30;1.02;;;;;;;;;;5489503;26;19997;-75
2024/04/10 13:11:09;;;;;;;5.68;1.33;;;;;;;;;;5519693;26;20534;-74
2024/04/10 13:13:36;;;;;;;3.45;1.25;;;;;;;;;;5438711;26;20013;-72
2024/04/10 13:16:04;;;;;;;4.05;1.27;;;;;;;;;;5477486;26;20066;-71
2024/04/10 13:18:31;;;;;;;2.80;0.93;;;;;;;;;;5452896;26;20038;-71
2024/04/10 13:20:59;;;;;;;4.88;1.10;;;;;;;;;;5449394;26;20034;-71
2024/04/10 13:23:34;;;;;;;4.68;0.70;;;;;;;;;;5459987;26;20001;-72
2024/04/10 13:26:02;;;;;;;3.67;1.38;;;;;;;;;;5446656;26;20636;-71
2024/04/10 13:28:34;;;;;;;4.88;1.33;;;;;;;;;;5436428;26;20011;-71
2024/04/10 13:31:09;;;;;;;5.57;0.90;;;;;;;;;;5439342;26;20013;-72
2024/04/10 13:33:39;;;;;;;1.83;1.17;;;;;;;;;;5448170;26;20487;-72
2024/04/10 13:36:11;;;;;;;3.65;0.88;;;;;;;;;;5410221;26;20007;-72
2024/04/10 13:38:42;;;;;;;4.93;1.35;;;;;;;;;;5462694;26;20010;-72
2024/04/10 13:41:10;;;;;;;4.85;1.05;;;;;;;;;;5442460;26;20021;-72
2024/04/10 13:43:38;;;;;;;4.22;0.93;;;;;;;;;;5463026;26;20007;-71
2024/04/10 13:46:07;;;;;;;4.53;1.17;;;;;;;;;;5446150;26;20022;-72
2024/04/10 13:48:34;;;;;;;4.18;0.80;;;;;;;;;;5460612;26;20003;-73
2024/04/10 13:51:02;;;;;;;4.07;0.82;;;;;;;;;;5449269;26;20008;-72
2024/04/10 13:53:29;;;;;;;3.78;0.80;;;;;;;;;;5450333;26;19998;-72
2024/04/10 13:56:06;;;;;;;4.50;0.93;;;;;;;;;;5440817;26;20006;-74
2024/04/10 13:58:33;;;;;;;6.00;1.08;;;;;;;;;;5425184;26;20006;-74
2024/04/10 14:01:00;;;;;;;4.57;0.90;;;;;;;;;;5424013;26;20051;-73
2024/04/10 14:03:26;;;;;;;5.25;1.10;;;;;;;;;;5441102;26;20353;-72
2024/04/10 14:06:00;;;;;;;3.97;0.95;;;;;;;;;;5437266;26;20492;-73
2024/04/10 14:08:30;;;;;;;4.45;0.80;;;;;;;;;;5409028;26;20038;-74
2024/04/10 14:10:57;;;;;;;3.45;1.05;;;;;;;;;;5439888;26;20021;-74
2024/04/10 14:13:24;;;;;;;1.58;0.60;;;;;;;;;;5431255;26;20026;-73
2024/04/10 14:15:54;;;;;;;5.13;1.02;;;;;;;;;;5443550;26;20013;-73
2024/04/10 14:18:22;;;;;;;3.42;1.00;;;;;;;;;;5453313;26;20071;-73
2024/04/10 14:20:58;;;;;;;2.92;0.85;;;;;;;;;;5449183;26;20003;-73
2024/04/10 14:23:32;;;;;;;3.03;1.35;;;;;;;;;;5453923;26;20425;-73
2024/04/10 14:26:02;;;;;;;5.03;1.02;;;;;;;;;;5425511;26;20006;-73
2024/04/10 14:28:29;;;;;;;3.30;1.08;;;;;;;;;;5457791;26;19999;-75
2024/04/10 14:30:58;;;;;;;3.80;0.95;;;;;;;;;;5419056;26;20083;-73
2024/04/10 14:33:29;;;;;;;2.70;0.90;;;;;;;;;;5444628;26;20485;-73
2024/04/10 14:35:56;;;;;;;4.57;1.48;;;;;;;;;;5441753;26;20011;-72
2024/04/10 14:38:25;;;;;;;3.47;1.02;;;;;;;;;;5438283;26;20003;-74
2024/04/10 14:40:55;;;;;;;4.78;0.80;;;;;;;;;;5425807;26;20348;-71
2024/04/10 14:43:22;;;;;;;3.13;0.73;;;;;;;;;;5409979;26;20456;-73
2024/04/10 14:45:49;;;;;;;3.50;0.80;;;;;;;;;;5431879;26;20080;-74
2024/04/10 14:48:16;;;;;;;3.10;0.77;;;;;;;;;;5425420;26;20001;-74
2024/04/10 14:51:01;;;;;;;4.05;1.00;;;;;;;;;;5449380;26;20075;-72
2024/04/10 14:53:28;;;;;;;4.88;0.80;;;;;;;;;;5455574;26;20006;-72